sensor_id;sensor_type;location;lat;lon;timestamp;pressure;altitude;pressure_sealevel;temperature;humidity
16255;BME280;8235;52.198;9.904;2022-12-19T00:01:40;101546.47;;;0.44;66.26
16255;BME280;8235;52.198;9.904;2022-12-19T00:04:09;101551.69;;;0.47;66.04
16255;BME280;8235;52.198;9.904;2022-12-19T00:06:37;101544.69;;;0.51;66.10
16255;BME280;8235;52.198;9.904;2022-12-19T00:09:04;101550.72;;;0.57;66.64
16255;BME280;8235;52.198;9.904;2022-12-19T00:11:32;101546.34;;;0.59;66.21
16255;BME280;8235;52.198;9.904;2022-12-19T00:13:59;101541.06;;;0.64;66.33
16255;BME280;8235;52.198;9.904;2022-12-19T00:16:27;101527.94;;;0.65;65.93
16255;BME280;8235;52.198;9.904;2022-12-19T00:18:57;101529.69;;;0.65;66.16
16255;BME280;8235;52.198;9.904;2022-12-19T00:21:25;101525.31;;;0.67;65.98
16255;BME280;8235;52.198;9.904;2022-12-19T00:23:52;101530.56;;;0.64;66.00
16255;BME280;8235;52.198;9.904;2022-12-19T00:26:20;101526.19;;;0.64;66.27
16255;BME280;8235;52.198;9.904;2022-12-19T00:28:49;101527.09;;;0.62;66.67
16255;BME280;8235;52.198;9.904;2022-12-19T00:31:17;101524.44;;;0.68;65.97
16255;BME280;8235;52.198;9.904;2022-12-19T00:33:44;101522.66;;;0.72;66.54
16255;BME280;8235;52.198;9.904;2022-12-19T00:36:14;101520.03;;;0.70;65.97
16255;BME280;8235;52.198;9.904;2022-12-19T00:38:41;101517.34;;;0.75;66.77
16255;BME280;8235;52.198;9.904;2022-12-19T00:41:08;101510.38;;;0.75;66.91
16255;BME280;8235;52.198;9.904;2022-12-19T00:43:35;101512.09;;;0.76;66.91
16255;BME280;8235;52.198;9.904;2022-12-19T00:46:02;101506.00;;;0.76;66.82
16255;BME280;8235;52.198;9.904;2022-12-19T00:48:29;101500.72;;;0.77;66.78
16255;BME280;8235;52.198;9.904;2022-12-19T00:50:59;101492.88;;;0.76;67.35
16255;BME280;8235;52.198;9.904;2022-12-19T00:53:27;101504.25;;;0.75;67.44
16255;BME280;8235;52.198;9.904;2022-12-19T00:55:54;101502.50;;;0.74;67.97
16255;BME280;8235;52.198;9.904;2022-12-19T00:58:21;101506.94;;;0.70;68.29
16255;BME280;8235;52.198;9.904;2022-12-19T01:00:48;101501.63;;;0.73;68.88
16255;BME280;8235;52.198;9.904;2022-12-19T01:03:14;101499.88;;;0.75;69.04
16255;BME280;8235;52.198;9.904;2022-12-19T01:05:41;101507.72;;;0.77;69.68
16255;BME280;8235;52.198;9.904;2022-12-19T01:08:07;101502.47;;;0.77;69.90
16255;BME280;8235;52.198;9.904;2022-12-19T01:10:35;101514.75;;;0.75;70.27
16255;BME280;8235;52.198;9.904;2022-12-19T01:13:02;101518.28;;;0.71;71.00
16255;BME280;8235;52.198;9.904;2022-12-19T01:15:28;101512.19;;;0.67;71.34
16255;BME280;8235;52.198;9.904;2022-12-19T01:17:54;101508.75;;;0.62;72.04
16255;BME280;8235;52.198;9.904;2022-12-19T01:20:21;101511.38;;;0.60;72.18
16255;BME280;8235;52.198;9.904;2022-12-19T01:22:47;101512.25;;;0.62;72.67
16255;BME280;8235;52.198;9.904;2022-12-19T01:25:14;101514.00;;;0.59;72.94
16255;BME280;8235;52.198;9.904;2022-12-19T01:27:42;101513.16;;;0.57;73.00
16255;BME280;8235;52.198;9.904;2022-12-19T01:30:09;101512.28;;;0.56;73.40
16255;BME280;8235;52.198;9.904;2022-12-19T01:32:36;101513.13;;;0.61;74.36
16255;BME280;8235;52.198;9.904;2022-12-19T01:35:03;101516.63;;;0.60;74.23
16255;BME280;8235;52.198;9.904;2022-12-19T01:37:30;101509.63;;;0.61;74.82
16255;BME280;8235;52.198;9.904;2022-12-19T01:39:56;101502.66;;;0.58;74.92
16255;BME280;8235;52.198;9.904;2022-12-19T01:42:23;101497.41;;;0.58;75.19
16255;BME280;8235;52.198;9.904;2022-12-19T01:45:23;101496.53;;;0.61;75.38
16255;BME280;8235;52.198;9.904;2022-12-19T01:47:52;101483.41;;;0.62;75.79
16255;BME280;8235;52.198;9.904;2022-12-19T01:50:24;101477.22;;;0.69;75.84
16255;BME280;8235;52.198;9.904;2022-12-19T01:52:52;101465.84;;;0.71;75.68
16255;BME280;8235;52.198;9.904;2022-12-19T01:55:19;101478.97;;;0.71;75.87
16255;BME280;8235;52.198;9.904;2022-12-19T01:57:46;101483.34;;;0.70;75.91
16255;BME280;8235;52.198;9.904;2022-12-19T02:00:13;101480.72;;;0.70;76.34
16255;BME280;8235;52.198;9.904;2022-12-19T02:02:45;101478.97;;;0.69;76.37
16255;BME280;8235;52.198;9.904;2022-12-19T02:05:14;101476.34;;;0.71;76.83
16255;BME280;8235;52.198;9.904;2022-12-19T02:07:41;101478.13;;;0.67;77.01
16255;BME280;8235;52.198;9.904;2022-12-19T02:10:08;101473.78;;;0.64;77.75
16255;BME280;8235;52.198;9.904;2022-12-19T02:12:36;101474.59;;;0.69;77.96
16255;BME280;8235;52.198;9.904;2022-12-19T02:15:04;101467.63;;;0.68;78.08
16255;BME280;8235;52.198;9.904;2022-12-19T02:17:38;101458.88;;;0.69;78.06
16255;BME280;8235;52.198;9.904;2022-12-19T02:20:35;101461.41;;;0.76;78.74
16255;BME280;8235;52.198;9.904;2022-12-19T02:23:26;101445.66;;;0.79;78.48
16255;BME280;8235;52.198;9.904;2022-12-19T02:26:09;101454.41;;;0.79;78.82
16255;BME280;8235;52.198;9.904;2022-12-19T02:29:11;101436.94;;;0.77;78.72
16255;BME280;8235;52.198;9.904;2022-12-19T02:31:47;101437.81;;;0.77;79.13
16255;BME280;8235;52.198;9.904;2022-12-19T02:34:21;101434.34;;;0.74;79.46
16255;BME280;8235;52.198;9.904;2022-12-19T02:36:53;101429.91;;;0.80;79.50
16255;BME280;8235;52.198;9.904;2022-12-19T02:39:23;101415.06;;;0.81;79.39
16255;BME280;8235;52.198;9.904;2022-12-19T02:41:54;101409.75;;;0.87;79.56
16255;BME280;8235;52.198;9.904;2022-12-19T02:44:24;101401.81;;;0.91;79.82
16255;BME280;8235;52.198;9.904;2022-12-19T02:46:54;101403.50;;;0.95;79.27
16255;BME280;8235;52.198;9.904;2022-12-19T02:49:20;101405.22;;;0.99;79.17
16255;BME280;8235;52.198;9.904;2022-12-19T02:51:47;101415.72;;;0.98;78.64
16255;BME280;8235;52.198;9.904;2022-12-19T02:54:14;101409.59;;;0.99;78.69
16255;BME280;8235;52.198;9.904;2022-12-19T02:56:48;101421.81;;;1.01;78.87
16255;BME280;8235;52.198;9.904;2022-12-19T02:59:28;101432.28;;;1.04;78.65
16255;BME280;8235;52.198;9.904;2022-12-19T03:02:04;101417.41;;;1.05;78.46
16255;BME280;8235;52.198;9.904;2022-12-19T03:04:41;101418.25;;;1.07;78.10
16255;BME280;8235;52.198;9.904;2022-12-19T03:07:13;101420.06;;;1.00;78.28
16255;BME280;8235;52.198;9.904;2022-12-19T03:09:45;101401.69;;;1.02;78.31
16255;BME280;8235;52.198;9.904;2022-12-19T03:12:20;101404.28;;;1.05;78.64
16255;BME280;8235;52.198;9.904;2022-12-19T03:14:50;101394.66;;;1.07;78.45
16255;BME280;8235;52.198;9.904;2022-12-19T03:17:18;101377.19;;;1.04;78.63
16255;BME280;8235;52.198;9.904;2022-12-19T03:19:45;101396.41;;;1.05;78.76
16255;BME280;8235;52.198;9.904;2022-12-19T03:22:11;101398.06;;;1.12;78.89
16255;BME280;8235;52.198;9.904;2022-12-19T03:24:38;101407.66;;;1.13;78.85
16255;BME280;8235;52.198;9.904;2022-12-19T03:27:09;101405.91;;;1.12;78.94
16255;BME280;8235;52.198;9.904;2022-12-19T03:29:39;101412.09;;;1.08;78.80
16255;BME280;8235;52.198;9.904;2022-12-19T03:32:13;101425.13;;;1.14;78.72
16255;BME280;8235;52.198;9.904;2022-12-19T03:34:46;101427.72;;;1.19;78.40
16255;BME280;8235;52.198;9.904;2022-12-19T03:37:16;101414.56;;;1.20;78.29
16255;BME280;8235;52.198;9.904;2022-12-19T03:39:45;101404.09;;;1.20;78.42
16255;BME280;8235;52.198;9.904;2022-12-19T03:42:15;101403.19;;;1.23;77.94
16255;BME280;8235;52.198;9.904;2022-12-19T03:45:01;101397.94;;;1.21;78.42
16255;BME280;8235;52.198;9.904;2022-12-19T03:47:33;101392.75;;;1.17;78.49
16255;BME280;8235;52.198;9.904;2022-12-19T03:50:03;101388.38;;;1.17;78.21
16255;BME280;8235;52.198;9.904;2022-12-19T03:52:34;101388.38;;;1.17;78.27
16255;BME280;8235;52.198;9.904;2022-12-19T03:55:09;101396.25;;;1.17;78.43
16255;BME280;8235;52.198;9.904;2022-12-19T03:57:40;101392.75;;;1.17;78.80
16255;BME280;8235;52.198;9.904;2022-12-19T04:00:11;101397.09;;;1.19;78.57
16255;BME280;8235;52.198;9.904;2022-12-19T04:02:40;101385.75;;;1.17;78.72
16255;BME280;8235;52.198;9.904;2022-12-19T04:05:12;101390.97;;;1.20;78.46
16255;BME280;8235;52.198;9.904;2022-12-19T04:07:40;101392.69;;;1.23;78.48
16255;BME280;8235;52.198;9.904;2022-12-19T04:10:10;101390.06;;;1.23;78.65
16255;BME280;8235;52.198;9.904;2022-12-19T04:12:39;101379.47;;;1.27;78.46
16255;BME280;8235;52.198;9.904;2022-12-19T04:15:08;101365.53;;;1.25;78.25
16255;BME280;8235;52.198;9.904;2022-12-19T04:17:38;101364.66;;;1.25;78.21
16255;BME280;8235;52.198;9.904;2022-12-19T04:20:08;101375.22;;;1.22;78.50
16255;BME280;8235;52.198;9.904;2022-12-19T04:22:39;101383.97;;;1.21;78.47
16255;BME280;8235;52.198;9.904;2022-12-19T04:25:10;101385.66;;;1.25;78.69
16255;BME280;8235;52.198;9.904;2022-12-19T04:27:40;101372.56;;;1.23;78.01
16255;BME280;8235;52.198;9.904;2022-12-19T04:30:12;101347.22;;;1.21;78.49
16255;BME280;8235;52.198;9.904;2022-12-19T04:32:40;101363.00;;;1.18;78.30
16255;BME280;8235;52.198;9.904;2022-12-19T04:35:07;101367.38;;;1.17;78.10
16255;BME280;8235;52.198;9.904;2022-12-19T04:37:34;101366.53;;;1.15;78.14
16255;BME280;8235;52.198;9.904;2022-12-19T04:40:03;101356.06;;;1.12;78.59
16255;BME280;8235;52.198;9.904;2022-12-19T04:42:29;101354.34;;;1.11;78.42
16255;BME280;8235;52.198;9.904;2022-12-19T04:44:56;101338.59;;;1.11;78.14
16255;BME280;8235;52.198;9.904;2022-12-19T04:47:22;101340.34;;;1.11;78.13
16255;BME280;8235;52.198;9.904;2022-12-19T04:49:49;101344.75;;;1.09;78.22
16255;BME280;8235;52.198;9.904;2022-12-19T04:52:15;101343.88;;;1.08;78.98
16255;BME280;8235;52.198;9.904;2022-12-19T04:54:42;101336.00;;;1.08;78.79
16255;BME280;8235;52.198;9.904;2022-12-19T04:57:10;101316.72;;;1.12;79.21
16255;BME280;8235;52.198;9.904;2022-12-19T04:59:36;101298.34;;;1.14;79.29
16255;BME280;8235;52.198;9.904;2022-12-19T05:02:03;101294.81;;;1.16;79.04
16255;BME280;8235;52.198;9.904;2022-12-19T05:04:29;101305.31;;;1.16;78.79
16255;BME280;8235;52.198;9.904;2022-12-19T05:06:56;101301.81;;;1.16;78.89
16255;BME280;8235;52.198;9.904;2022-12-19T05:09:22;101297.44;;;1.16;78.94
16255;BME280;8235;52.198;9.904;2022-12-19T05:11:49;101296.56;;;1.17;78.90
16255;BME280;8235;52.198;9.904;2022-12-19T05:14:17;101293.94;;;1.17;78.93
16255;BME280;8235;52.198;9.904;2022-12-19T05:16:43;101288.69;;;1.17;79.14
16255;BME280;8235;52.198;9.904;2022-12-19T05:19:09;101278.22;;;1.14;78.87
16255;BME280;8235;52.198;9.904;2022-12-19T05:21:36;101270.28;;;1.19;78.86
16255;BME280;8235;52.198;9.904;2022-12-19T05:24:03;101259.81;;;1.19;78.59
16255;BME280;8235;52.198;9.904;2022-12-19T05:26:30;101262.41;;;1.20;78.46
16255;BME280;8235;52.198;9.904;2022-12-19T05:28:56;101262.44;;;1.17;79.14
16255;BME280;8235;52.198;9.904;2022-12-19T05:31:24;101263.34;;;1.16;78.79
16255;BME280;8235;52.198;9.904;2022-12-19T05:33:50;101265.06;;;1.19;78.93
16255;BME280;8235;52.198;9.904;2022-12-19T05:36:17;101260.72;;;1.16;78.91
16255;BME280;8235;52.198;9.904;2022-12-19T05:38:44;101263.34;;;1.16;78.88
16255;BME280;8235;52.198;9.904;2022-12-19T05:41:12;101275.59;;;1.16;79.52
16255;BME280;8235;52.198;9.904;2022-12-19T05:43:40;101272.97;;;1.16;79.88
16255;BME280;8235;52.198;9.904;2022-12-19T05:46:07;101272.94;;;1.17;79.52
16255;BME280;8235;52.198;9.904;2022-12-19T05:48:36;101276.44;;;1.16;80.05
16255;BME280;8235;52.198;9.904;2022-12-19T05:51:03;101266.81;;;1.17;79.90
16255;BME280;8235;52.198;9.904;2022-12-19T05:53:30;101273.78;;;1.19;79.97
16255;BME280;8235;52.198;9.904;2022-12-19T05:56:07;101263.31;;;1.18;80.38
16255;BME280;8235;52.198;9.904;2022-12-19T05:58:34;101258.03;;;1.21;80.92
16255;BME280;8235;52.198;9.904;2022-12-19T06:01:01;101256.22;;;1.24;80.87
16255;BME280;8235;52.198;9.904;2022-12-19T06:03:28;101253.53;;;1.27;81.70
16255;BME280;8235;52.198;9.904;2022-12-19T06:05:56;101251.75;;;1.29;81.21
16255;BME280;8235;52.198;9.904;2022-12-19T06:08:23;101245.63;;;1.30;81.41
16255;BME280;8235;52.198;9.904;2022-12-19T06:10:49;101244.69;;;1.34;82.21
16255;BME280;8235;52.198;9.904;2022-12-19T06:13:16;101246.38;;;1.38;81.68
16255;BME280;8235;52.198;9.904;2022-12-19T06:15:42;101232.31;;;1.43;81.88
16255;BME280;8235;52.198;9.904;2022-12-19T06:18:09;101219.97;;;1.46;82.71
16255;BME280;8235;52.198;9.904;2022-12-19T06:20:35;101224.31;;;1.49;82.81
16255;BME280;8235;52.198;9.904;2022-12-19T06:23:03;101229.53;;;1.50;82.68
16255;BME280;8235;52.198;9.904;2022-12-19T06:25:30;101211.97;;;1.55;82.91
16255;BME280;8235;52.198;9.904;2022-12-19T06:27:56;101198.81;;;1.57;83.16
16255;BME280;8235;52.198;9.904;2022-12-19T06:30:23;101204.03;;;1.58;83.51
16255;BME280;8235;52.198;9.904;2022-12-19T06:32:49;101207.53;;;1.59;83.52
16255;BME280;8235;52.198;9.904;2022-12-19T06:35:16;101189.16;;;1.59;83.67
16255;BME280;8235;52.198;9.904;2022-12-19T06:37:42;101191.75;;;1.60;83.45
16255;BME280;8235;52.198;9.904;2022-12-19T06:40:11;101190.84;;;1.61;83.40
16255;BME280;8235;52.198;9.904;2022-12-19T06:42:58;101195.25;;;1.61;84.11
16255;BME280;8235;52.198;9.904;2022-12-19T06:45:23;101186.53;;;1.59;83.92
16255;BME280;8235;52.198;9.904;2022-12-19T06:47:49;101197.03;;;1.59;84.29
16255;BME280;8235;52.198;9.904;2022-12-19T06:50:16;101211.03;;;1.59;83.89
16255;BME280;8235;52.198;9.904;2022-12-19T06:52:42;101218.03;;;1.59;84.46
16255;BME280;8235;52.198;9.904;2022-12-19T06:55:10;101211.00;;;1.61;84.22
16255;BME280;8235;52.198;9.904;2022-12-19T06:57:37;101208.38;;;1.61;84.67
16255;BME280;8235;52.198;9.904;2022-12-19T07:00:11;101210.13;;;1.60;85.21
16255;BME280;8235;52.198;9.904;2022-12-19T07:02:38;101210.03;;;1.65;85.32
16255;BME280;8235;52.198;9.904;2022-12-19T07:05:07;101202.16;;;1.65;85.72
16255;BME280;8235;52.198;9.904;2022-12-19T07:07:34;101188.13;;;1.66;86.26
16255;BME280;8235;52.198;9.904;2022-12-19T07:10:02;101190.69;;;1.70;85.86
16255;BME280;8235;52.198;9.904;2022-12-19T07:12:30;101196.81;;;1.69;86.23
16255;BME280;8235;52.198;9.904;2022-12-19T07:14:57;101198.59;;;1.69;86.40
16255;BME280;8235;52.198;9.904;2022-12-19T07:17:24;101197.69;;;1.70;86.28
16255;BME280;8235;52.198;9.904;2022-12-19T07:19:53;101200.28;;;1.71;86.70
16255;BME280;8235;52.198;9.904;2022-12-19T07:22:21;101202.94;;;1.70;87.24
16255;BME280;8235;52.198;9.904;2022-12-19T07:24:48;101198.50;;;1.73;87.47
16255;BME280;8235;52.198;9.904;2022-12-19T07:27:15;101196.81;;;1.71;86.98
16255;BME280;8235;52.198;9.904;2022-12-19T07:29:43;101203.81;;;1.70;87.27
16255;BME280;8235;52.198;9.904;2022-12-19T07:32:09;101210.81;;;1.70;88.02
16255;BME280;8235;52.198;9.904;2022-12-19T07:34:36;101202.06;;;1.71;87.91
16255;BME280;8235;52.198;9.904;2022-12-19T07:37:02;101203.78;;;1.72;89.00
16255;BME280;8235;52.198;9.904;2022-12-19T07:39:29;101203.72;;;1.77;89.50
16255;BME280;8235;52.198;9.904;2022-12-19T07:41:55;101200.16;;;1.79;89.86
16255;BME280;8235;52.198;9.904;2022-12-19T07:44:24;101210.63;;;1.81;89.72
16255;BME280;8235;52.198;9.904;2022-12-19T07:46:52;101207.06;;;1.83;90.34
16255;BME280;8235;52.198;9.904;2022-12-19T07:49:21;101201.75;;;1.86;90.63
16255;BME280;8235;52.198;9.904;2022-12-19T07:51:48;101209.63;;;1.88;90.79
16255;BME280;8235;52.198;9.904;2022-12-19T07:54:14;101198.16;;;1.92;90.53
16255;BME280;8235;52.198;9.904;2022-12-19T07:56:41;101202.56;;;1.91;91.92
16255;BME280;8235;52.198;9.904;2022-12-19T07:59:07;101209.53;;;1.92;92.00
16255;BME280;8235;52.198;9.904;2022-12-19T08:01:35;101215.66;;;1.93;92.75
16255;BME280;8235;52.198;9.904;2022-12-19T08:04:04;101227.91;;;1.94;93.00
16255;BME280;8235;52.198;9.904;2022-12-19T08:06:31;101222.53;;;1.98;92.56
16255;BME280;8235;52.198;9.904;2022-12-19T08:08:59;101217.19;;;2.03;93.46
16255;BME280;8235;52.198;9.904;2022-12-19T08:11:25;101217.16;;;2.04;93.12
16255;BME280;8235;52.198;9.904;2022-12-19T08:13:54;101212.69;;;2.11;93.30
16255;BME280;8235;52.198;9.904;2022-12-19T08:16:25;101210.03;;;2.13;94.46
16255;BME280;8235;52.198;9.904;2022-12-19T08:18:52;101209.16;;;2.12;93.98
16255;BME280;8235;52.198;9.904;2022-12-19T08:21:23;101215.28;;;2.13;94.24
16255;BME280;8235;52.198;9.904;2022-12-19T08:23:54;101206.50;;;2.14;94.60
16255;BME280;8235;52.198;9.904;2022-12-19T08:26:23;101218.75;;;2.15;95.23
16255;BME280;8235;52.198;9.904;2022-12-19T08:28:50;101209.00;;;2.18;95.67
16255;BME280;8235;52.198;9.904;2022-12-19T08:31:18;101215.13;;;2.19;95.48
16255;BME280;8235;52.198;9.904;2022-12-19T08:33:44;101211.56;;;2.23;96.48
16255;BME280;8235;52.198;9.904;2022-12-19T08:36:15;101219.41;;;2.24;96.67
16255;BME280;8235;52.198;9.904;2022-12-19T08:38:45;101221.97;;;2.29;96.48
16255;BME280;8235;52.198;9.904;2022-12-19T08:41:14;101207.88;;;2.31;96.76
16255;BME280;8235;52.198;9.904;2022-12-19T08:43:46;101221.91;;;2.32;96.34
16255;BME280;8235;52.198;9.904;2022-12-19T08:46:13;101219.28;;;2.32;96.72
16255;BME280;8235;52.198;9.904;2022-12-19T08:48:42;101203.28;;;2.41;97.51
16255;BME280;8235;52.198;9.904;2022-12-19T08:51:12;101200.66;;;2.41;98.83
16255;BME280;8235;52.198;9.904;2022-12-19T08:53:40;101200.63;;;2.42;98.67
16255;BME280;8235;52.198;9.904;2022-12-19T08:56:16;101199.56;;;2.51;98.41
16255;BME280;8235;52.198;9.904;2022-12-19T08:58:43;101190.69;;;2.57;98.85
16255;BME280;8235;52.198;9.904;2022-12-19T09:01:14;101188.94;;;2.56;98.66
16255;BME280;8235;52.198;9.904;2022-12-19T09:03:43;101194.19;;;2.57;99.28
16255;BME280;8235;52.198;9.904;2022-12-19T09:06:11;101201.16;;;2.58;99.88
16255;BME280;8235;52.198;9.904;2022-12-19T09:08:38;101188.94;;;2.56;99.53
16255;BME280;8235;52.198;9.904;2022-12-19T09:11:06;101175.75;;;2.59;99.34
16255;BME280;8235;52.198;9.904;2022-12-19T09:13:36;101166.06;;;2.61;100.00
16255;BME280;8235;52.198;9.904;2022-12-19T09:16:04;101168.56;;;2.67;100.00
16255;BME280;8235;52.198;9.904;2022-12-19T09:18:31;101158.00;;;2.68;100.00
16255;BME280;8235;52.198;9.904;2022-12-19T09:20:58;101154.38;;;2.72;100.00
16255;BME280;8235;52.198;9.904;2022-12-19T09:23:25;101131.50;;;2.76;100.00
16255;BME280;8235;52.198;9.904;2022-12-19T09:25:52;101142.84;;;2.79;100.00
16255;BME280;8235;52.198;9.904;2022-12-19T09:28:19;101138.47;;;2.78;100.00
16255;BME280;8235;52.198;9.904;2022-12-19T09:30:53;101139.25;;;2.82;100.00
16255;BME280;8235;52.198;9.904;2022-12-19T09:33:20;101136.59;;;2.84;100.00
16255;BME280;8235;52.198;9.904;2022-12-19T09:35:48;101142.53;;;2.92;100.00
16255;BME280;8235;52.198;9.904;2022-12-19T09:38:15;101139.91;;;2.92;100.00
16255;BME280;8235;52.198;9.904;2022-12-19T09:40:50;101125.78;;;2.96;100.00
16255;BME280;8235;52.198;9.904;2022-12-19T09:43:26;101129.34;;;2.93;100.00
16255;BME280;8235;52.198;9.904;2022-12-19T09:46:02;101122.25;;;2.97;100.00
16255;BME280;8235;52.198;9.904;2022-12-19T09:48:34;101122.25;;;2.97;100.00
16255;BME280;8235;52.198;9.904;2022-12-19T09:51:04;101132.84;;;2.94;100.00
16255;BME280;8235;52.198;9.904;2022-12-19T09:53:39;101132.84;;;2.94;100.00
16255;BME280;8235;52.198;9.904;2022-12-19T09:56:13;101142.50;;;2.93;100.00
16255;BME280;8235;52.198;9.904;2022-12-19T09:58:43;101146.81;;;2.96;100.00
16255;BME280;8235;52.198;9.904;2022-12-19T10:01:17;101141.47;;;3.00;100.00
16255;BME280;8235;52.198;9.904;2022-12-19T10:03:49;101148.47;;;3.00;100.00
16255;BME280;8235;52.198;9.904;2022-12-19T10:06:21;101144.94;;;3.01;100.00
16255;BME280;8235;52.198;9.904;2022-12-19T10:08:49;101145.84;;;3.00;100.00
16255;BME280;8235;52.198;9.904;2022-12-19T10:11:28;101137.88;;;3.03;100.00
16255;BME280;8235;52.198;9.904;2022-12-19T10:14:10;101137.78;;;3.06;100.00
16255;BME280;8235;52.198;9.904;2022-12-19T10:16:50;101129.91;;;3.06;100.00
16255;BME280;8235;52.198;9.904;2022-12-19T10:19:25;101129.75;;;3.12;100.00
16255;BME280;8235;52.198;9.904;2022-12-19T10:21:59;101126.09;;;3.18;100.00
16255;BME280;8235;52.198;9.904;2022-12-19T10:24:46;101118.19;;;3.19;100.00
16255;BME280;8235;52.198;9.904;2022-12-19T10:27:24;101110.22;;;3.22;100.00
16255;BME280;8235;52.198;9.904;2022-12-19T10:30:00;101116.31;;;3.23;100.00
16255;BME280;8235;52.198;9.904;2022-12-19T10:32:34;101103.91;;;3.28;100.00
16255;BME280;8235;52.198;9.904;2022-12-19T10:35:11;101109.09;;;3.31;100.00
16255;BME280;8235;52.198;9.904;2022-12-19T10:37:44;101103.75;;;3.34;100.00
16255;BME280;8235;52.198;9.904;2022-12-19T10:40:16;101104.50;;;3.39;100.00
16255;BME280;8235;52.198;9.904;2022-12-19T10:42:50;101099.13;;;3.42;100.00
16255;BME280;8235;52.198;9.904;2022-12-19T10:45:21;101100.81;;;3.44;100.00
16255;BME280;8235;52.198;9.904;2022-12-19T10:47:54;101094.66;;;3.45;100.00
16255;BME280;8235;52.198;9.904;2022-12-19T10:50:23;101084.94;;;3.47;100.00
16255;BME280;8235;52.198;9.904;2022-12-19T10:52:53;101077.78;;;3.53;100.00
16255;BME280;8235;52.198;9.904;2022-12-19T10:55:27;101075.03;;;3.57;100.00
16255;BME280;8235;52.198;9.904;2022-12-19T10:57:57;101075.03;;;3.57;100.00
16255;BME280;8235;52.198;9.904;2022-12-19T11:00:24;101079.28;;;3.61;100.00
16255;BME280;8235;52.198;9.904;2022-12-19T11:03:07;101069.44;;;3.68;100.00
16255;BME280;8235;52.198;9.904;2022-12-19T11:05:42;101069.41;;;3.69;100.00
16255;BME280;8235;52.198;9.904;2022-12-19T11:08:15;101066.66;;;3.74;100.00
16255;BME280;8235;52.198;9.904;2022-12-19T11:10:45;101063.03;;;3.76;100.00
16255;BME280;8235;52.198;9.904;2022-12-19T11:13:20;101068.16;;;3.82;100.00
16255;BME280;8235;52.198;9.904;2022-12-19T11:15:50;101054.94;;;3.84;100.00
16255;BME280;8235;52.198;9.904;2022-12-19T11:18:18;101059.16;;;3.90;100.00
16255;BME280;8235;52.198;9.904;2022-12-19T11:20:54;101054.59;;;3.95;100.00
16255;BME280;8235;52.198;9.904;2022-12-19T11:23:22;101049.25;;;3.98;100.00
16255;BME280;8235;52.198;9.904;2022-12-19T11:25:55;101052.84;;;3.95;100.00
16255;BME280;8235;52.198;9.904;2022-12-19T11:28:24;101045.84;;;3.94;100.00
16255;BME280;8235;52.198;9.904;2022-12-19T11:31:02;101038.00;;;3.93;100.00
16255;BME280;8235;52.198;9.904;2022-12-19T11:33:31;101035.41;;;3.91;100.00
16255;BME280;8235;52.198;9.904;2022-12-19T11:36:00;101037.19;;;3.91;100.00
16255;BME280;8235;52.198;9.904;2022-12-19T11:38:39;101034.38;;;3.95;100.00
16255;BME280;8235;52.198;9.904;2022-12-19T11:41:13;101035.22;;;3.97;100.00
16255;BME280;8235;52.198;9.904;2022-12-19T11:43:46;101023.63;;;4.03;100.00
16255;BME280;8235;52.198;9.904;2022-12-19T11:46:33;101034.16;;;4.03;100.00
16255;BME280;8235;52.198;9.904;2022-12-19T11:49:09;101033.16;;;4.07;100.00
16255;BME280;8235;52.198;9.904;2022-12-19T11:51:39;101036.47;;;4.13;100.00
16255;BME280;8235;52.198;9.904;2022-12-19T11:54:12;101041.69;;;4.15;100.00
16255;BME280;8235;52.198;9.904;2022-12-19T11:56:42;101035.56;;;4.14;100.00
16255;BME280;8235;52.198;9.904;2022-12-19T11:59:16;101027.59;;;4.16;100.00
16255;BME280;8235;52.198;9.904;2022-12-19T12:02:18;101033.91;;;4.12;100.00
16255;BME280;8235;52.198;9.904;2022-12-19T12:05:07;101029.59;;;4.09;100.00
16255;BME280;8235;52.198;9.904;2022-12-19T12:07:41;101026.94;;;4.09;100.00
16255;BME280;8235;52.198;9.904;2022-12-19T12:10:13;101023.44;;;4.09;100.00
16255;BME280;8235;52.198;9.904;2022-12-19T12:12:49;101016.41;;;4.09;100.00
16255;BME280;8235;52.198;9.904;2022-12-19T12:15:32;101011.22;;;4.06;100.00
16255;BME280;8235;52.198;9.904;2022-12-19T12:18:07;101002.44;;;4.06;100.00
16255;BME280;8235;52.198;9.904;2022-12-19T12:20:48;101010.34;;;4.06;100.00
16255;BME280;8235;52.198;9.904;2022-12-19T12:23:24;101012.13;;;4.05;100.00
16255;BME280;8235;52.198;9.904;2022-12-19T12:25:57;101017.41;;;4.05;99.81
16255;BME280;8235;52.198;9.904;2022-12-19T12:28:42;101014.69;;;4.08;100.00
16255;BME280;8235;52.198;9.904;2022-12-19T12:31:26;101009.38;;;4.10;100.00
16255;BME280;8235;52.198;9.904;2022-12-19T12:34:03;101006.69;;;4.11;99.53
16255;BME280;8235;52.198;9.904;2022-12-19T12:36:40;101007.47;;;4.13;99.88
16255;BME280;8235;52.198;9.904;2022-12-19T12:39:11;101009.25;;;4.13;99.48
16255;BME280;8235;52.198;9.904;2022-12-19T12:41:49;101017.97;;;4.15;99.45
16255;BME280;8235;52.198;9.904;2022-12-19T12:44:31;101020.59;;;4.15;99.93
16255;BME280;8235;52.198;9.904;2022-12-19T12:47:04;101021.41;;;4.17;99.69
16255;BME280;8235;52.198;9.904;2022-12-19T12:49:37;101016.97;;;4.19;99.62
16255;BME280;8235;52.198;9.904;2022-12-19T12:52:08;101009.88;;;4.21;99.88
16255;BME280;8235;52.198;9.904;2022-12-19T12:54:39;101007.16;;;4.24;99.22
16255;BME280;8235;52.198;9.904;2022-12-19T12:57:15;101003.56;;;4.27;99.64
16255;BME280;8235;52.198;9.904;2022-12-19T12:59:44;101011.28;;;4.31;99.28
16255;BME280;8235;52.198;9.904;2022-12-19T13:02:15;101008.53;;;4.36;99.55
16255;BME280;8235;52.198;9.904;2022-12-19T13:04:54;101003.16;;;4.39;99.61
16255;BME280;8235;52.198;9.904;2022-12-19T13:07:39;101013.47;;;4.46;99.03
16255;BME280;8235;52.198;9.904;2022-12-19T13:10:20;101012.38;;;4.52;99.03
16255;BME280;8235;52.198;9.904;2022-12-19T13:12:59;101008.75;;;4.56;99.12
16255;BME280;8235;52.198;9.904;2022-12-19T13:15:35;101011.25;;;4.61;99.07
16255;BME280;8235;52.198;9.904;2022-12-19T13:18:30;101009.41;;;4.63;98.61
16255;BME280;8235;52.198;9.904;2022-12-19T13:20:59;101013.59;;;4.68;98.15
16255;BME280;8235;52.198;9.904;2022-12-19T13:23:46;101014.38;;;4.72;98.13
16255;BME280;8235;52.198;9.904;2022-12-19T13:29:25;101020.38;;;4.77;97.74